Terminal Aerodrome Forecast
Issued by NWS

Home | Current Version | Previous Version | Text Only | Print | Product List | Glossary On
Versions: 1 2 3 4 5 6 7 8 9 10 11 12 13 14 15 16
969
FTPA31 PHFO 261735
TAFHOG
TAF
PHOG 261735Z 2618/2718 06012G20KT P6SM SCT030
     FM262000 06018G28KT P6SM SCT030 SCT045
     FM270000 06020G30KT P6SM SCT030 SCT045
     FM270600 06012G18KT P6SM SCT030
     FM271000 06011KT P6SM SCT030=

USA.gov is the U.S. government's official web portal to all federal, state and local government web resources and services.